Time;durP1;ratioP1;P1;durP2;ratioP2;P2;SDS_P1;SDS_P2;PMS_P1;PMS_P2;Temp;Humidity;BMP_temperature;BMP_pressure;BME280_temperature;BME280_humidity;BME280_pressure;Samples;Min_cycle;Max_cycle;Signal;HPM_P1;HPM_P2
2021/07/17 00:01:59;;;;;;;54.67;17.10;;;;;;;20.07;76.76;101709.16;5015321;28;20482;-47
2021/07/17 00:04:29;;;;;;;42.43;14.63;;;;;;;19.99;77.10;101703.78;5016759;28;20460;-48
2021/07/17 00:06:57;;;;;;;54.47;15.00;;;;;;;19.96;77.02;101701.13;5014885;28;20491;-46
2021/07/17 00:09:25;;;;;;;50.47;18.73;;;;;;;19.88;77.01;101707.94;5016533;28;20476;-48
2021/07/17 00:11:53;;;;;;;46.90;15.13;;;;;;;20.00;77.39;101700.31;5015137;28;20496;-48
2021/07/17 00:14:22;;;;;;;40.33;15.67;;;;;;;19.95;77.29;101705.47;5016499;28;20590;-50
2021/07/17 00:16:50;;;;;;;37.73;16.47;;;;;;;19.90;77.39;101706.22;5014639;28;20936;-48
2021/07/17 00:19:18;;;;;;;44.23;16.30;;;;;;;19.97;77.32;101700.25;5016480;28;20469;-48
2021/07/17 00:21:46;;;;;;;50.93;15.70;;;;;;;19.93;77.66;101701.91;5014729;28;20488;-49
2021/07/17 00:24:13;;;;;;;37.40;15.60;;;;;;;19.92;77.58;101696.66;5016196;28;20460;-49
2021/07/17 00:26:41;;;;;;;52.87;18.13;;;;;;;19.87;77.27;101699.19;5015076;28;20789;-48
2021/07/17 00:29:09;;;;;;;53.70;16.50;;;;;;;19.83;77.38;101703.50;5015319;28;20464;-50
2021/07/17 00:31:38;;;;;;;51.20;17.23;;;;;;;19.93;77.21;101698.41;5012372;28;20479;-48
2021/07/17 00:34:06;;;;;;;59.63;16.30;;;;;;;19.87;77.57;101704.41;5016133;28;20530;-53
2021/07/17 00:36:34;;;;;;;44.63;16.63;;;;;;;19.84;77.63;101707.88;5014228;28;20497;-48
2021/07/17 00:39:01;;;;;;;52.63;16.53;;;;;;;19.87;77.36;101708.75;5016053;28;20528;-49
2021/07/17 00:41:29;;;;;;;55.43;16.60;;;;;;;19.96;77.85;101711.59;5014639;28;20486;-47
2021/07/17 00:43:56;;;;;;;52.97;17.57;;;;;;;20.02;77.21;101708.19;5015866;28;20465;-50
2021/07/17 00:46:25;;;;;;;51.40;18.30;;;;;;;19.97;77.24;101713.34;5014077;28;20488;-47
2021/07/17 00:48:54;;;;;;;58.97;24.10;;;;;;;19.78;77.30;101713.00;5012788;28;20770;-46
2021/07/17 00:51:25;;;;;;;43.00;20.97;;;;;;;19.87;77.53;101721.84;5010920;28;20487;-48
2021/07/17 00:53:53;;;;;;;48.83;17.57;;;;;;;20.00;77.36;101710.78;5016023;28;20470;-46
2021/07/17 00:56:21;;;;;;;58.33;17.70;;;;;;;19.94;77.38;101718.53;5013787;28;20913;-47
2021/07/17 00:58:49;;;;;;;49.93;19.17;;;;;;;20.06;77.18;101713.50;5015841;28;20467;-47
2021/07/17 01:01:17;;;;;;;40.47;16.40;;;;;;;19.89;77.26;101712.31;5014090;28;20498;-48
2021/07/17 01:03:45;;;;;;;43.27;17.63;;;;;;;20.02;76.95;101711.72;5015703;28;20494;-48
2021/07/17 01:06:14;;;;;;;39.40;17.53;;;;;;;19.75;77.01;101712.94;5013493;28;20793;-47
2021/07/17 01:08:41;;;;;;;45.93;17.20;;;;;;;19.85;77.91;101719.22;5015752;28;20465;-48
2021/07/17 01:11:09;;;;;;;44.67;17.97;;;;;;;20.09;77.28;101723.16;5014639;28;20484;-49
2021/07/17 01:13:36;;;;;;;50.27;17.27;;;;;;;19.94;77.58;101723.75;5015656;28;20496;-53
2021/07/17 01:16:05;;;;;;;48.20;17.73;;;;;;;19.76;77.85;101708.56;5013835;28;20917;-48
2021/07/17 01:18:32;;;;;;;47.00;17.33;;;;;;;19.86;77.63;101712.25;5015772;28;20461;-47
2021/07/17 01:21:00;;;;;;;47.37;19.30;;;;;;;19.83;77.59;101716.56;5014138;28;20581;-48
2021/07/17 01:23:29;;;;;;;37.93;17.67;;;;;;;19.88;78.10;101715.78;5015606;28;20467;-50
2021/07/17 01:25:57;;;;;;;38.60;19.07;;;;;;;19.93;78.13;101721.97;5013934;28;20471;-50
2021/07/17 01:28:25;;;;;;;47.57;19.50;;;;;;;19.92;77.76;101720.22;5015374;28;20774;-48
2021/07/17 01:30:53;;;;;;;43.23;18.00;;;;;;;20.08;77.48;101718.78;5013995;28;20478;-50
2021/07/17 01:33:21;;;;;;;48.20;18.47;;;;;;;19.97;77.05;101723.84;5015207;28;20891;-49
2021/07/17 01:35:49;;;;;;;54.73;21.80;;;;;;;20.23;76.54;101715.53;5013930;28;20490;-49
2021/07/17 01:38:17;;;;;;;42.00;18.43;;;;;;;20.20;76.40;101712.88;5015110;28;20458;-46
2021/07/17 01:40:48;;;;;;;53.10;19.03;;;;;;;20.06;76.38;101713.50;5007970;28;20778;-49
2021/07/17 01:43:16;;;;;;;42.00;19.47;;;;;;;20.05;76.54;101716.97;4995475;28;20850;-49
2021/07/17 01:45:45;;;;;;;41.50;17.80;;;;;;;19.79;77.12;101713.88;4994186;28;20460;-49
2021/07/17 01:48:14;;;;;;;48.40;22.80;;;;;;;19.96;76.95;101712.47;4995385;28;20506;-49
2021/07/17 01:50:42;;;;;;;45.93;20.23;;;;;;;20.07;76.87;101709.16;4994280;28;20491;-51
2021/07/17 01:53:13;;;;;;;52.00;20.90;;;;;;;20.28;76.19;101715.59;4995274;28;20484;-48
2021/07/17 01:55:41;;;;;;;44.73;18.27;;;;;;;20.17;76.30;101710.19;4994401;28;20492;-47
2021/07/17 01:58:10;;;;;;;40.57;19.83;;;;;;;20.21;76.12;101709.41;4995512;28;20491;-48
2021/07/17 02:00:38;;;;;;;44.30;23.17;;;;;;;20.16;76.12;101706.72;4994345;28;20488;-50
2021/07/17 02:03:07;;;;;;;37.63;18.13;;;;;;;20.23;75.89;101712.91;4995353;28;20505;-49
2021/07/17 02:05:35;;;;;;;48.03;21.73;;;;;;;20.00;75.83;101705.53;4995198;28;20525;-48
2021/07/17 02:08:03;;;;;;;51.00;26.73;;;;;;;20.09;76.09;101707.44;4969966;28;20488;-49
2021/07/17 02:10:33;;;;;;;45.50;18.57;;;;;;;20.12;75.77;101701.38;4995344;28;20489;-50
2021/07/17 02:13:03;;;;;;;40.33;17.47;;;;;;;20.18;75.74;101706.72;4993572;28;20479;-49
2021/07/17 02:15:33;;;;;;;35.80;16.17;;;;;;;20.09;75.73;101710.94;4995123;28;20496;-49
2021/07/17 02:18:02;;;;;;;40.20;18.23;;;;;;;20.19;75.72;101709.38;4994937;28;20475;-47
2021/07/17 02:20:30;;;;;;;43.87;18.40;;;;;;;20.16;75.67;101703.19;4998694;28;20481;-50
2021/07/17 02:22:57;;;;;;;36.20;15.77;;;;;;;20.22;75.90;101704.19;4999865;28;20486;-47
2021/07/17 02:25:25;;;;;;;38.10;19.37;;;;;;;20.20;76.18;101702.41;4998687;28;20561;-49
2021/07/17 02:27:52;;;;;;;38.63;16.40;;;;;;;20.24;76.20;101701.59;4997376;28;20524;-48
2021/07/17 02:30:20;;;;;;;39.77;18.70;;;;;;;20.27;76.14;101703.38;4998603;28;20487;-50
2021/07/17 02:32:49;;;;;;;39.17;15.47;;;;;;;20.21;76.54;101698.94;4997164;28;20491;-47
2021/07/17 02:35:17;;;;;;;40.00;17.77;;;;;;;20.18;76.47;101698.84;4999011;28;20786;-49
2021/07/17 02:37:44;;;;;;;33.57;17.37;;;;;;;20.18;76.75;101699.75;4996889;28;20930;-49
2021/07/17 02:40:12;;;;;;;30.03;14.83;;;;;;;20.23;76.53;101697.19;5003066;28;20479;-48
2021/07/17 02:42:40;;;;;;;34.70;14.13;;;;;;;20.26;76.67;101693.75;5016580;28;20484;-48
2021/07/17 02:45:08;;;;;;;35.57;14.30;;;;;;;20.33;76.52;101700.84;5017930;28;20464;-52
2021/07/17 02:47:36;;;;;;;33.30;14.97;;;;;;;20.20;76.80;101703.28;5016325;28;20474;-48
2021/07/17 02:50:07;;;;;;;31.00;14.40;;;;;;;20.16;76.69;101698.84;5018167;28;20483;-50
2021/07/17 02:52:34;;;;;;;33.37;15.00;;;;;;;20.25;76.52;101703.34;5016585;28;20916;-52
2021/07/17 02:55:03;;;;;;;33.07;14.37;;;;;;;20.31;76.85;101699.97;5018054;28;20468;-50
2021/07/17 02:57:30;;;;;;;27.47;13.73;;;;;;;20.19;76.50;101703.25;5016147;28;20484;-48
2021/07/17 02:59:58;;;;;;;42.00;15.40;;;;;;;20.29;76.41;101707.78;5014331;28;20491;-50
2021/07/17 03:02:26;;;;;;;24.67;13.20;;;;;;;20.17;76.80;101704.97;4997103;28;20488;-47
2021/07/17 03:04:54;;;;;;;35.93;15.17;;;;;;;20.19;76.66;101703.25;4998363;28;20758;-49
2021/07/17 03:07:22;;;;;;;31.93;16.30;;;;;;;20.18;77.00;101709.34;4996040;28;20794;-48
2021/07/17 03:09:50;;;;;;;29.20;14.00;;;;;;;20.29;76.84;101715.66;4998090;28;20483;-49
2021/07/17 03:12:18;;;;;;;25.57;13.83;;;;;;;20.13;76.73;101718.84;4996497;28;20489;-48
2021/07/17 03:14:45;;;;;;;29.40;14.37;;;;;;;20.17;76.95;101710.19;4998408;28;20564;-49
2021/07/17 03:17:13;;;;;;;24.10;13.03;;;;;;;20.17;76.56;101711.09;4996366;28;20833;-50
2021/07/17 03:19:41;;;;;;;31.40;14.30;;;;;;;20.21;76.68;101712.88;4997920;28;20468;-52
2021/07/17 03:22:09;;;;;;;27.80;12.97;;;;;;;20.12;76.58;101711.84;4996497;28;20488;-49
2021/07/17 03:24:38;;;;;;;26.50;13.53;;;;;;;19.93;77.08;101717.63;4997801;28;20464;-48
2021/07/17 03:27:06;;;;;;;29.03;14.20;;;;;;;20.00;77.44;101712.53;4996070;28;20488;-52
2021/07/17 03:29:33;;;;;;;25.10;12.23;;;;;;;19.95;77.28;101720.28;4997241;28;20758;-47
2021/07/17 03:32:01;;;;;;;21.20;12.20;;;;;;;20.00;77.11;101717.78;4996323;28;20490;-48
2021/07/17 03:34:30;;;;;;;24.03;13.27;;;;;;;19.87;77.44;101722.75;4997658;28;20459;-48
2021/07/17 03:36:57;;;;;;;27.73;12.10;;;;;;;19.90;76.65;101719.31;4995373;28;20789;-52
2021/07/17 03:39:25;;;;;;;23.03;12.07;;;;;;;19.87;77.31;101720.13;4997459;28;20464;-48
2021/07/17 03:41:54;;;;;;;24.60;12.00;;;;;;;20.02;76.61;101718.66;4996707;28;20500;-48
2021/07/17 03:44:26;;;;;;;25.80;12.57;;;;;;;19.93;75.91;101716.72;4997217;28;20551;-49
2021/07/17 03:46:54;;;;;;;20.83;10.93;;;;;;;19.98;76.04;101722.97;4996439;28;20498;-47
2021/07/17 03:49:22;;;;;;;17.20;10.60;;;;;;;19.73;75.88;101724.25;4997491;28;20842;-47
2021/07/17 03:51:50;;;;;;;15.63;9.50;;;;;;;19.95;75.37;101725.50;4995925;28;20483;-47
2021/07/17 03:54:17;;;;;;;17.67;9.67;;;;;;;19.83;75.48;101731.38;4997237;28;20461;-47
2021/07/17 03:56:45;;;;;;;16.50;9.13;;;;;;;19.86;74.93;101728.84;4995460;28;20491;-48
2021/07/17 03:59:14;;;;;;;23.03;10.10;;;;;;;19.82;74.74;101725.28;4997183;28;20460;-51
2021/07/17 04:01:41;;;;;;;15.30;9.23;;;;;;;19.76;74.47;101725.19;4996038;28;20493;-49
2021/07/17 04:04:12;;;;;;;19.87;9.40;;;;;;;19.73;74.97;101724.25;4996980;28;20473;-49
2021/07/17 04:06:40;;;;;;;20.63;9.07;;;;;;;19.68;74.80;101740.72;4995200;28;20480;-51
2021/07/17 04:09:08;;;;;;;13.63;8.57;;;;;;;19.65;74.39;101737.16;4997195;28;20468;-51
2021/07/17 04:11:36;;;;;;;16.13;7.80;;;;;;;19.73;73.64;101739.94;4995556;28;20488;-46
2021/07/17 04:14:04;;;;;;;15.50;8.63;;;;;;;19.67;73.87;101741.59;4997394;28;20465;-46
2021/07/17 04:16:33;;;;;;;12.83;7.30;;;;;;;19.63;72.58;101733.66;5012000;28;20489;-48
2021/07/17 04:19:00;;;;;;;11.73;7.20;;;;;;;19.84;72.80;101733.16;5016431;28;20463;-48
2021/07/17 04:21:28;;;;;;;10.50;6.93;;;;;;;19.48;72.10;101747.31;5015185;28;20479;-49
2021/07/17 04:23:55;;;;;;;14.40;6.07;;;;;;;19.38;71.28;101739.25;5016362;28;20940;-48
2021/07/17 04:26:23;;;;;;;18.87;8.40;;;;;;;19.40;70.37;101736.66;5013753;28;20487;-51
2021/07/17 04:28:51;;;;;;;41.83;24.20;;;;;;;19.50;70.60;101738.63;5016244;28;20468;-49
2021/07/17 04:31:18;;;;;;;21.60;8.87;;;;;;;19.60;69.81;101744.03;5011492;28;20476;-47
2021/07/17 04:33:47;;;;;;;18.50;10.17;;;;;;;19.58;70.42;101741.38;5016200;28;20459;-51
2021/07/17 04:36:15;;;;;;;10.63;5.70;;;;;;;19.51;69.26;101740.41;5014286;28;20467;-50
2021/07/17 04:38:43;;;;;;;12.20;8.17;;;;;;;19.62;69.20;101742.31;5016010;28;20961;-49
2021/07/17 04:41:10;;;;;;;7.90;5.33;;;;;;;19.53;69.06;101743.91;5013858;28;20786;-46
2021/07/17 04:43:38;;;;;;;6.90;4.20;;;;;;;19.52;68.13;101747.38;5015709;28;20467;-50
2021/07/17 04:46:05;;;;;;;11.13;4.90;;;;;;;19.34;68.09;101752.25;5014152;28;20475;-50
2021/07/17 04:48:33;;;;;;;9.47;5.50;;;;;;;19.45;67.28;101744.59;5016092;28;20458;-51
2021/07/17 04:51:02;;;;;;;8.33;4.80;;;;;;;19.53;67.48;101749.16;5014565;28;20473;-47
2021/07/17 04:53:29;;;;;;;9.37;4.90;;;;;;;19.30;66.98;101741.69;5016069;28;20780;-51
2021/07/17 04:55:57;;;;;;;11.17;4.97;;;;;;;19.54;67.38;101740.44;5014236;28;20926;-49
2021/07/17 04:58:24;;;;;;;7.03;3.93;;;;;;;19.56;67.03;101738.75;5015627;28;21014;-49
2021/07/17 05:00:52;;;;;;;11.10;4.70;;;;;;;19.56;66.78;101744.00;5011547;28;20490;-46
2021/07/17 05:03:20;;;;;;;9.60;4.07;;;;;;;19.47;66.82;101746.41;5015591;28;20474;-49
2021/07/17 05:05:48;;;;;;;11.10;5.60;;;;;;;19.50;66.82;101749.09;5014291;28;20454;-46
2021/07/17 05:08:17;;;;;;;9.10;4.90;;;;;;;19.50;67.42;101751.72;5015410;28;20497;-50
2021/07/17 05:10:45;;;;;;;10.37;4.10;;;;;;;19.55;66.09;101749.19;5014325;28;20574;-50
2021/07/17 05:13:13;;;;;;;6.53;4.40;;;;;;;19.43;65.71;101741.94;5015205;28;20499;-51
2021/07/17 05:15:41;;;;;;;5.83;3.87;;;;;;;19.29;65.80;101753.00;5013959;28;20471;-47
2021/07/17 05:18:11;;;;;;;6.40;4.00;;;;;;;19.25;66.67;101752.91;5015342;28;20501;-46
2021/07/17 05:20:39;;;;;;;8.40;4.30;;;;;;;19.31;65.85;101750.44;5014459;28;20483;-48
2021/07/17 05:23:07;;;;;;;15.47;4.47;;;;;;;19.18;66.69;101757.16;5015274;28;20950;-48
2021/07/17 05:25:36;;;;;;;8.20;3.80;;;;;;;19.34;67.30;101742.69;5015180;28;20465;-49
2021/07/17 05:28:04;;;;;;;10.63;4.90;;;;;;;19.15;67.15;101746.63;5014815;28;20465;-48
2021/07/17 05:30:32;;;;;;;10.13;3.70;;;;;;;19.07;65.90;101749.03;5015127;28;20523;-47
2021/07/17 05:33:00;;;;;;;8.27;3.20;;;;;;;19.20;65.30;101749.31;5014014;28;20498;-48
2021/07/17 05:35:28;;;;;;;9.20;3.70;;;;;;;19.21;66.04;101751.09;5015232;28;20461;-50
2021/07/17 05:37:56;;;;;;;7.53;3.47;;;;;;;19.19;65.20;101758.91;5013799;28;20485;-48
2021/07/17 05:40:24;;;;;;;9.83;5.87;;;;;;;19.10;65.64;101758.69;5015422;28;20484;-50
2021/07/17 05:42:53;;;;;;;7.10;3.73;;;;;;;19.15;64.51;101762.31;5013629;28;20480;-52
2021/07/17 05:45:21;;;;;;;12.00;4.30;;;;;;;19.26;64.83;101755.59;5015060;28;20468;-48
2021/07/17 05:47:48;;;;;;;12.10;4.80;;;;;;;19.42;65.05;101768.97;5013741;28;20499;-47
2021/07/17 05:50:17;;;;;;;9.50;3.10;;;;;;;19.41;64.02;101764.59;5015141;28;20480;-51
2021/07/17 05:52:44;;;;;;;7.20;3.37;;;;;;;19.26;64.02;101771.28;5014271;28;20485;-50
2021/07/17 05:55:13;;;;;;;10.13;3.57;;;;;;;19.29;64.57;101775.69;5019078;28;20467;-48
2021/07/17 05:57:41;;;;;;;9.93;3.40;;;;;;;19.12;65.44;101781.44;5017180;28;20503;-48
2021/07/17 06:00:11;;;;;;;9.93;3.37;;;;;;;19.15;64.36;101773.66;5018818;28;20493;-50
2021/07/17 06:02:39;;;;;;;7.90;3.37;;;;;;;19.23;64.96;101784.28;5017381;28;20483;-51
2021/07/17 06:05:08;;;;;;;12.70;3.20;;;;;;;19.32;65.47;101788.81;5018911;28;20462;-47
2021/07/17 06:07:35;;;;;;;9.60;3.60;;;;;;;19.32;65.92;101790.56;5013078;28;20822;-56
2021/07/17 06:10:04;;;;;;;13.60;3.87;;;;;;;19.14;65.44;101791.94;5003454;28;20499;-63
2021/07/17 06:12:32;;;;;;;53.77;25.33;;;;;;;19.30;65.01;101795.78;4997085;28;20476;-63
2021/07/17 06:15:00;;;;;;;14.17;3.20;;;;;;;19.33;64.30;101798.44;5018659;28;20492;-63
2021/07/17 06:17:28;;;;;;;9.80;3.40;;;;;;;19.36;64.34;101793.28;5011226;28;20499;-62
2021/07/17 06:19:56;;;;;;;11.87;3.83;;;;;;;19.60;65.01;101796.38;4993915;28;20489;-61
2021/07/17 06:22:24;;;;;;;29.97;7.97;;;;;;;19.63;64.49;101791.22;4996614;28;20490;-62
2021/07/17 06:24:51;;;;;;;17.07;3.53;;;;;;;19.58;64.74;101796.34;4998730;28;20756;-62
2021/07/17 06:27:19;;;;;;;13.23;5.10;;;;;;;19.52;64.42;101794.50;4999465;28;20475;-62
2021/07/17 06:29:46;;;;;;;16.60;4.03;;;;;;;19.58;64.83;101798.09;4998509;28;20486;-61
2021/07/17 06:32:18;;;;;;;15.27;4.43;;;;;;;19.72;64.54;101795.75;4997101;28;20516;-62
2021/07/17 06:34:47;;;;;;;7.90;3.30;;;;;;;19.80;64.56;101795.03;4998519;28;20459;-62
2021/07/17 06:37:15;;;;;;;10.43;3.97;;;;;;;19.86;63.88;101796.03;4996887;28;20485;-62
2021/07/17 06:39:42;;;;;;;15.33;4.43;;;;;;;19.83;63.94;101802.09;4998507;28;22246;-62
2021/07/17 06:42:10;;;;;;;26.03;4.90;;;;;;;20.03;63.78;101801.63;4996930;28;20921;-62
2021/07/17 06:44:37;;;;;;;7.63;2.90;;;;;;;20.02;63.87;101803.38;5016211;28;20459;-62
2021/07/17 06:47:05;;;;;;;16.47;6.73;;;;;;;20.07;63.46;101808.69;5007181;28;20480;-62
2021/07/17 06:49:32;;;;;;;20.37;4.93;;;;;;;20.28;63.73;101805.59;5014093;28;20461;-61
2021/07/17 06:52:02;;;;;;;11.23;3.20;;;;;;;20.31;63.69;101807.38;4998233;28;20518;-63
2021/07/17 06:54:30;;;;;;;15.27;5.67;;;;;;;20.32;63.80;101806.53;5001945;28;20898;-63
2021/07/17 06:56:57;;;;;;;15.60;3.23;;;;;;;20.24;63.24;101803.75;5016033;28;21268;-62
2021/07/17 06:59:25;;;;;;;9.97;3.90;;;;;;;20.21;63.67;101804.59;5005049;28;20516;-62
2021/07/17 07:01:52;;;;;;;19.87;5.43;;;;;;;20.34;63.76;101797.84;4996815;28;20508;-62
2021/07/17 07:04:22;;;;;;;15.33;5.60;;;;;;;20.43;63.48;101807.59;5000885;28;20448;-62
2021/07/17 07:06:50;;;;;;;16.10;5.80;;;;;;;20.63;62.63;101804.44;5006591;28;20487;-62
2021/07/17 07:09:19;;;;;;;44.47;17.30;;;;;;;20.62;62.32;101802.69;5006824;28;20478;-63
2021/07/17 07:11:46;;;;;;;19.00;4.70;;;;;;;20.71;61.95;101808.06;4991930;28;20481;-62
2021/07/17 07:14:14;;;;;;;57.47;14.63;;;;;;;20.84;62.25;101803.00;5017196;28;20464;-62
2021/07/17 07:16:41;;;;;;;10.53;3.73;;;;;;;20.88;61.95;101800.47;5004944;28;20567;-62
2021/07/17 07:19:09;;;;;;;38.87;16.43;;;;;;;20.67;61.77;101806.25;4997800;28;20972;-61
2021/07/17 07:21:36;;;;;;;20.80;8.53;;;;;;;20.71;61.48;101804.56;5000368;28;20474;-62
2021/07/17 07:24:05;;;;;;;21.80;8.03;;;;;;;20.80;60.43;101796.84;5010636;28;20460;-62
2021/07/17 07:26:33;;;;;;;41.17;20.60;;;;;;;20.74;61.00;101797.63;4998473;28;20490;-62
2021/07/17 07:29:01;;;;;;;17.77;8.97;;;;;;;20.82;60.26;101800.34;4998612;28;20465;-62
2021/07/17 07:31:29;;;;;;;11.07;2.97;;;;;;;20.91;60.59;101791.78;5011265;28;20476;-62
2021/07/17 07:33:57;;;;;;;11.80;4.40;;;;;;;20.88;60.64;101800.47;5009257;28;20465;-63
2021/07/17 07:36:24;;;;;;;20.50;3.67;;;;;;;21.01;60.68;101800.66;5000168;28;20486;-62
2021/07/17 07:38:52;;;;;;;38.87;12.00;;;;;;;21.15;60.57;101799.16;4997034;28;20486;-62
2021/07/17 07:41:20;;;;;;;90.47;25.47;;;;;;;21.29;60.47;101808.94;4993300;28;20553;-61
2021/07/17 07:43:49;;;;;;;34.50;15.63;;;;;;;21.23;61.28;101801.84;4997568;28;20462;-61
2021/07/17 07:46:16;;;;;;;15.03;4.00;;;;;;;21.35;60.88;101801.16;5002172;28;20487;-62
2021/07/17 07:48:44;;;;;;;11.90;3.50;;;;;;;21.52;60.86;101805.72;4999343;28;20481;-62
2021/07/17 07:51:12;;;;;;;18.90;6.37;;;;;;;21.56;60.79;101810.16;5015279;28;20547;-62
2021/07/17 07:53:39;;;;;;;17.87;5.33;;;;;;;21.61;61.26;101799.72;5009719;28;20468;-62
2021/07/17 07:56:07;;;;;;;13.60;4.20;;;;;;;21.73;60.75;101804.28;5015134;28;20544;-62
2021/07/17 07:58:35;;;;;;;11.33;3.90;;;;;;;21.79;60.46;101809.63;5016715;28;20481;-62
2021/07/17 08:01:04;;;;;;;12.20;3.80;;;;;;;21.84;61.08;101806.16;5008895;28;20935;-62
2021/07/17 08:03:31;;;;;;;14.73;5.10;;;;;;;21.84;60.12;101806.16;5008611;28;20481;-62
2021/07/17 08:05:59;;;;;;;14.43;4.70;;;;;;;21.76;58.88;101806.94;4986209;28;21090;-62
2021/07/17 08:08:27;;;;;;;13.00;3.60;;;;;;;21.78;58.75;101798.22;5009656;28;20464;-61
2021/07/17 08:10:54;;;;;;;14.27;3.90;;;;;;;21.64;59.49;101791.91;4995775;28;20486;-62
2021/07/17 08:13:22;;;;;;;17.67;5.30;;;;;;;21.78;60.18;101806.09;4996943;28;20488;-62
2021/07/17 08:15:50;;;;;;;8.20;3.37;;;;;;;21.83;59.46;101798.25;4994833;28;20902;-62
2021/07/17 08:18:19;;;;;;;11.03;3.20;;;;;;;21.92;59.68;101797.47;5010645;28;20544;-63
2021/07/17 08:20:47;;;;;;;11.73;3.20;;;;;;;21.94;58.18;101804.53;5014610;28;20480;-62
2021/07/17 08:23:15;;;;;;;13.07;4.30;;;;;;;22.31;58.65;101801.38;5016217;28;20492;-62
2021/07/17 08:25:42;;;;;;;11.13;3.50;;;;;;;22.14;59.25;101795.97;5014837;28;20469;-62
2021/07/17 08:28:10;;;;;;;14.83;3.93;;;;;;;22.29;58.51;101797.00;5015845;28;20493;-62
2021/07/17 08:30:38;;;;;;;10.00;3.27;;;;;;;22.43;57.05;101795.38;5014794;28;20488;-62
2021/07/17 08:33:06;;;;;;;10.33;2.87;;;;;;;22.30;57.31;101804.88;5016052;28;20485;-62
2021/07/17 08:35:35;;;;;;;8.03;3.37;;;;;;;22.50;57.98;101799.81;5012690;28;20539;-62
2021/07/17 08:38:03;;;;;;;12.27;3.33;;;;;;;22.87;56.73;101796.59;5004816;28;20466;-62
2021/07/17 08:40:31;;;;;;;15.67;4.00;;;;;;;22.72;55.76;101807.03;4995927;28;20490;-62
2021/07/17 08:42:59;;;;;;;13.97;8.20;;;;;;;22.95;56.61;101793.13;4995244;28;20501;-62
2021/07/17 08:45:27;;;;;;;11.43;3.40;;;;;;;22.99;56.07;101801.06;4995652;28;20472;-62
2021/07/17 08:47:56;;;;;;;9.17;3.10;;;;;;;23.02;55.59;101800.22;4995211;28;20493;-61
2021/07/17 08:50:25;;;;;;;12.23;3.00;;;;;;;23.11;55.58;101791.50;4996254;28;20482;-62
2021/07/17 08:52:56;;;;;;;17.00;3.43;;;;;;;23.15;56.91;101793.25;4994941;28;20486;-62
2021/07/17 08:55:25;;;;;;;16.63;4.07;;;;;;;23.13;54.89;101792.38;4995789;28;20454;-62
2021/07/17 08:57:53;;;;;;;11.70;3.43;;;;;;;23.19;54.30;101792.41;4995159;28;20485;-62
2021/07/17 09:00:22;;;;;;;12.70;3.87;;;;;;;23.42;55.03;101794.28;4995461;28;20575;-62
2021/07/17 09:02:52;;;;;;;17.30;5.20;;;;;;;23.51;54.50;101804.00;4997277;28;20481;-62
2021/07/17 09:05:21;;;;;;;8.60;2.83;;;;;;;23.70;55.32;101795.28;4995879;28;20458;-62
2021/07/17 09:07:49;;;;;;;28.50;11.13;;;;;;;23.57;55.77;101799.66;4995038;28;20485;-62
2021/07/17 09:10:34;;;;;;;43.80;21.33;;;;;;;23.53;56.40;101800.50;4995601;28;20877;-62
2021/07/17 09:13:13;;;;;;;7.33;3.50;;;;;;;23.64;54.55;101794.41;4995545;28;20466;-63
2021/07/17 09:15:43;;;;;;;6.67;2.90;;;;;;;23.74;52.71;101801.47;4994890;28;20454;-62
2021/07/17 09:18:11;;;;;;;18.30;5.47;;;;;;;23.72;53.58;101782.13;5009047;28;20507;-62
2021/07/17 09:20:54;;;;;;;7.57;2.90;;;;;;;23.85;54.31;101790.97;5014787;28;20489;-62
2021/07/17 09:23:24;;;;;;;22.63;7.00;;;;;;;23.82;52.55;101788.31;5015524;28;20453;-62
2021/07/17 09:25:54;;;;;;;12.33;2.97;;;;;;;24.18;53.05;101786.66;5014283;28;20450;-62
2021/07/17 09:28:23;;;;;;;9.83;3.30;;;;;;;24.20;53.40;101786.66;5009571;28;20458;-62
2021/07/17 09:30:55;;;;;;;6.47;2.50;;;;;;;24.37;52.24;101781.41;4994176;28;20474;-64
2021/07/17 09:33:24;;;;;;;23.07;7.57;;;;;;;24.21;53.95;101781.41;4995712;28;20838;-62
2021/07/17 09:35:53;;;;;;;36.07;18.53;;;;;;;24.46;53.20;101783.16;4993902;28;20597;-63
2021/07/17 09:38:22;;;;;;;35.00;18.63;;;;;;;24.24;51.70;101789.28;4995627;28;20468;-62
2021/07/17 09:40:51;;;;;;;18.33;9.73;;;;;;;24.39;52.68;101779.63;4994369;28;20516;-62
2021/07/17 09:43:29;;;;;;;14.37;5.37;;;;;;;24.64;51.78;101780.50;4995133;28;20458;-61
2021/07/17 09:45:57;;;;;;;15.33;4.20;;;;;;;24.61;51.49;101784.91;4993922;28;20536;-62
2021/07/17 09:48:30;;;;;;;20.53;10.60;;;;;;;24.69;51.98;101772.59;4995628;28;20789;-61
2021/07/17 09:50:59;;;;;;;9.00;3.30;;;;;;;24.74;49.61;101776.09;4989520;28;20470;-62
2021/07/17 09:53:41;;;;;;;11.30;2.10;;;;;;;24.60;50.59;101778.75;4994857;28;20462;-61
2021/07/17 09:56:10;;;;;;;20.90;6.30;;;;;;;24.90;50.89;101766.44;4980755;28;20785;-63
2021/07/17 09:58:39;;;;;;;35.10;12.10;;;;;;;25.03;49.42;101769.03;4995404;28;20960;-62
2021/07/17 10:01:18;;;;;;;11.90;3.03;;;;;;;24.91;50.33;101772.59;4993804;28;20485;-61
2021/07/17 10:03:48;;;;;;;26.20;9.50;;;;;;;25.04;48.05;101770.78;4995454;28;20468;-62
2021/07/17 10:06:32;;;;;;;11.40;3.50;;;;;;;25.25;48.29;101766.31;4993854;28;20830;-62
2021/07/17 10:09:00;;;;;;;5.90;2.20;;;;;;;25.24;48.35;101768.09;4995304;28;20490;-61
2021/07/17 10:11:29;;;;;;;9.47;2.70;;;;;;;24.91;48.49;101768.19;4995170;28;20496;-62
2021/07/17 10:13:58;;;;;;;6.40;2.33;;;;;;;25.08;48.87;101765.47;4994535;28;20458;-61
2021/07/17 10:16:27;;;;;;;11.20;3.70;;;;;;;25.15;48.48;101769.00;4993621;28;20569;-62
2021/07/17 10:18:56;;;;;;;44.27;13.23;;;;;;;25.30;48.65;101770.72;5014400;28;20499;-61
2021/07/17 10:21:24;;;;;;;24.43;7.60;;;;;;;25.12;47.69;101766.34;5013086;28;20543;-61
2021/07/17 10:23:52;;;;;;;8.23;2.50;;;;;;;25.00;49.19;101766.38;5013779;28;20452;-62
2021/07/17 10:26:19;;;;;;;13.60;2.40;;;;;;;25.10;49.82;101762.84;4993294;28;20493;-62
2021/07/17 10:28:47;;;;;;;7.00;2.50;;;;;;;25.39;48.73;101768.91;4997408;28;20877;-62
2021/07/17 10:31:16;;;;;;;8.57;2.57;;;;;;;25.37;48.29;101776.81;4993312;28;20486;-61
2021/07/17 10:33:43;;;;;;;12.77;3.27;;;;;;;25.47;48.18;101762.69;4994838;28;20888;-62
2021/07/17 10:36:15;;;;;;;8.40;2.80;;;;;;;25.70;48.20;101774.97;4993468;28;20502;-62
2021/07/17 10:38:45;;;;;;;9.77;3.77;;;;;;;25.71;45.96;101766.13;4995116;28;20458;-61
2021/07/17 10:41:14;;;;;;;10.57;1.97;;;;;;;25.49;47.59;101754.78;4996403;28;20509;-61
2021/07/17 10:43:42;;;;;;;8.10;2.87;;;;;;;25.57;46.46;101770.59;4998335;28;20458;-62
2021/07/17 10:46:29;;;;;;;11.10;3.03;;;;;;;25.73;46.46;101767.00;4996826;28;20770;-62
2021/07/17 10:48:58;;;;;;;8.10;2.80;;;;;;;25.88;46.44;101755.47;4998248;28;20502;-61
2021/07/17 10:51:32;;;;;;;7.93;2.43;;;;;;;25.69;48.79;101775.81;4997067;28;20478;-62
2021/07/17 10:54:01;;;;;;;8.37;2.10;;;;;;;25.63;47.56;101765.28;4998413;28;20825;-62
2021/07/17 10:56:37;;;;;;;11.07;2.50;;;;;;;25.66;47.33;101767.03;4996475;28;20939;-62
2021/07/17 10:59:10;;;;;;;10.83;3.30;;;;;;;25.91;45.36;101758.97;4997733;28;21227;-62
2021/07/17 11:02:05;;;;;;;10.20;3.57;;;;;;;25.75;45.31;101761.72;4996521;28;20987;-62
2021/07/17 11:04:38;;;;;;;7.80;2.40;;;;;;;26.03;45.47;101758.88;5000135;28;20525;-61
2021/07/17 11:07:39;;;;;;;7.13;2.20;;;;;;;26.04;44.99;101763.25;4996283;28;20572;-62
2021/07/17 11:10:14;;;;;;;11.33;2.40;;;;;;;25.78;44.55;101758.19;4998359;28;20482;-62
2021/07/17 11:12:59;;;;;;;8.43;2.77;;;;;;;26.08;46.63;101758.81;4996715;28;20490;-62
2021/07/17 11:15:49;;;;;;;9.50;2.50;;;;;;;26.14;45.85;101748.22;4997653;28;20462;-62
2021/07/17 11:18:39;;;;;;;7.80;2.80;;;;;;;26.29;45.82;101748.13;5011228;28;20476;-62
2021/07/17 11:21:12;;;;;;;11.47;2.30;;;;;;;26.04;46.78;101757.13;5015980;28;20504;-62
2021/07/17 11:23:42;;;;;;;8.00;2.10;;;;;;;26.11;45.03;101740.31;5017027;28;20465;-62
2021/07/17 11:26:16;;;;;;;6.53;2.27;;;;;;;25.87;44.01;101744.88;5015639;28;20491;-62